Guaxupe, Brazil
Current Conditions -  °F | °C
As of 2:00 PM on Sunday 23 Nov 2014 (Local Time) from SBPC Reporting Station
Broken Clouds Broken Clouds  
Wind Chill: 75°   Ceiling: 7000
Heat Index: 75°   Visibility: 6mi
Dew Point: 68°   Wind: 2mph
Humidity: 78%   Direction: 260°W
Pressure: 30.09"   Gusts: NA
Location:  21.31°S, 46.71°W
Report Text: SBPC 231600Z 26002KT 9999 SCT010 BKN070 24/20 Q1019
Loading
Personal Weather Stations






























Interactive Weather Map New forecast layout! Learn more

10-Day Weather Forecast

Advertisements
Track Severe Weather on mobile